Time;durP1;ratioP1;P1;durP2;ratioP2;P2;SDS_P1;SDS_P2;PMS_P1;PMS_P2;Temp;Humidity;BMP_temperature;BMP_pressure;BME280_temperature;BME280_humidity;BME280_pressure;Samples;Min_cycle;Max_cycle;Signal;HPM_P1;HPM_P2
2022/05/16 00:01:54;;;;;;;12.30;5.85;;;12.40;99.90;;;;;;5055270;28;20115;-68
2022/05/16 00:04:20;;;;;;;10.80;5.35;;;12.40;99.90;;;;;;5034657;28;20078;-68
2022/05/16 00:06:46;;;;;;;14.80;5.80;;;12.30;99.90;;;;;;5044825;28;20045;-68
2022/05/16 00:09:11;;;;;;;13.82;5.65;;;12.30;99.90;;;;;;5036686;28;20036;-68
2022/05/16 00:11:37;;;;;;;10.35;5.97;;;12.30;99.90;;;;;;5037789;28;20048;-68
2022/05/16 00:14:03;;;;;;;10.40;5.45;;;12.30;99.90;;;;;;5003765;28;20132;-68
2022/05/16 00:16:29;;;;;;;10.70;5.43;;;12.30;99.90;;;;;;5039034;28;20075;-68
2022/05/16 00:18:55;;;;;;;10.18;5.43;;;12.20;99.90;;;;;;5068787;28;20049;-68
2022/05/16 00:21:21;;;;;;;9.88;5.45;;;12.20;99.90;;;;;;5022145;28;20033;-67
2022/05/16 00:23:47;;;;;;;10.50;5.60;;;12.20;99.90;;;;;;5053141;28;20040;-68
2022/05/16 00:26:12;;;;;;;14.63;5.47;;;12.10;99.90;;;;;;5054170;28;20525;-68
2022/05/16 00:28:38;;;;;;;9.52;5.40;;;12.10;99.90;;;;;;5036254;28;20044;-68
2022/05/16 00:31:05;;;;;;;15.02;5.93;;;12.00;99.90;;;;;;5038145;28;20041;-68
2022/05/16 00:33:32;;;;;;;16.90;6.13;;;12.00;99.90;;;;;;5052128;28;20059;-68
2022/05/16 00:35:58;;;;;;;12.30;5.35;;;12.00;99.90;;;;;;5055827;28;20048;-68
2022/05/16 00:38:24;;;;;;;15.25;6.18;;;12.00;99.90;;;;;;5021847;28;20037;-68
2022/05/16 00:40:55;;;;;;;8.10;5.22;;;11.90;99.90;;;;;;5040370;28;20170;-68
2022/05/16 00:43:46;;;;;;;11.35;5.63;;;11.90;99.90;;;;;;5038938;28;20044;-68
2022/05/16 00:46:14;;;;;;;8.07;5.25;;;11.90;99.90;;;;;;5042552;28;20076;-68
2022/05/16 00:48:40;;;;;;;10.30;5.25;;;11.90;99.90;;;;;;5059712;28;20098;-68
2022/05/16 00:51:12;;;;;;;9.68;5.43;;;11.80;99.90;;;;;;5042679;28;20033;-68
2022/05/16 00:53:38;;;;;;;12.82;5.80;;;11.80;99.90;;;;;;5035255;28;20033;-68
2022/05/16 00:56:05;;;;;;;13.85;5.65;;;11.80;99.90;;;;;;5062444;28;20037;-68
2022/05/16 00:58:31;;;;;;;14.45;5.55;;;11.80;99.90;;;;;;5054289;28;20041;-68
2022/05/16 01:00:57;;;;;;;13.75;6.13;;;11.80;99.90;;;;;;5044067;28;20058;-68
2022/05/16 01:06:08;;;;;;;16.02;5.80;;;11.80;99.90;;;;;;5060313;28;20053;-68
2022/05/16 01:08:39;;;;;;;12.20;5.28;;;11.80;99.90;;;;;;5034709;28;20041;-68
2022/05/16 01:11:11;;;;;;;11.60;5.32;;;11.80;99.90;;;;;;5047770;28;20086;-68
2022/05/16 01:13:37;;;;;;;;;;;11.70;99.90;;;;;;5058568;28;20044;-69
2022/05/16 01:16:03;;;;;;;12.90;5.13;;;11.70;99.90;;;;;;5056345;28;19923;-68
2022/05/16 01:18:29;;;;;;;11.48;5.10;;;11.70;99.90;;;;;;5021671;28;20044;-68
2022/05/16 01:21:13;;;;;;;7.53;4.57;;;11.70;99.90;;;;;;5056544;28;20054;-68
2022/05/16 01:23:45;;;;;;;12.23;5.68;;;11.70;99.90;;;;;;5036627;28;20129;-68
2022/05/16 01:26:16;;;;;;;11.88;4.60;;;11.70;99.90;;;;;;5057028;28;20048;-68
2022/05/16 01:28:42;;;;;;;9.43;4.90;;;11.60;99.90;;;;;;5057658;28;20060;-68
2022/05/16 01:31:08;;;;;;;6.35;4.55;;;11.60;99.90;;;;;;5046173;28;20076;-68
2022/05/16 01:33:33;;;;;;;9.98;4.93;;;11.60;99.90;;;;;;5052674;28;20567;-68
2022/05/16 01:35:59;;;;;;;7.82;4.68;;;11.60;99.90;;;;;;5034590;28;20455;-68
2022/05/16 01:38:26;;;;;;;9.80;4.88;;;11.60;99.90;;;;;;5025277;28;20044;-68
2022/05/16 01:41:02;;;;;;;11.68;5.15;;;11.60;99.90;;;;;;5033349;28;20037;-68
2022/05/16 01:43:31;;;;;;;10.02;4.55;;;11.60;99.90;;;;;;5058870;28;20165;-68
2022/05/16 01:45:57;;;;;;;10.20;5.05;;;11.60;99.90;;;;;;5037214;28;20449;-68
2022/05/16 01:48:23;;;;;;;8.73;4.80;;;11.50;99.90;;;;;;5043916;28;20088;-68
2022/05/16 01:50:50;;;;;;;10.18;4.93;;;11.50;99.90;;;;;;5050044;28;20094;-68
2022/05/16 01:53:18;;;;;;;7.63;4.95;;;11.50;99.90;;;;;;5056259;28;20037;-68
2022/05/16 01:55:44;;;;;;;9.25;4.30;;;11.50;99.90;;;;;;5034916;28;20075;-68
2022/05/16 01:58:09;;;;;;;11.02;4.68;;;11.50;99.90;;;;;;5060112;28;20064;-68
2022/05/16 02:00:37;;;;;;;9.90;4.22;;;11.50;99.90;;;;;;5038365;28;20132;-68
2022/05/16 02:03:05;;;;;;;10.70;4.78;;;11.50;99.90;;;;;;5030903;28;20053;-68
2022/05/16 02:05:32;;;;;;;9.18;5.03;;;11.50;99.90;;;;;;5039402;28;20094;-69
2022/05/16 02:07:58;;;;;;;9.63;4.18;;;11.50;99.90;;;;;;5041643;28;20052;-68
2022/05/16 02:10:25;;;;;;;8.60;4.57;;;11.40;99.90;;;;;;5048323;28;20040;-68
2022/05/16 02:12:53;;;;;;;14.20;4.38;;;11.40;99.90;;;;;;5040673;28;20086;-68
2022/05/16 02:15:24;;;;;;;8.07;4.75;;;11.40;99.90;;;;;;5036039;28;20040;-68
2022/05/16 02:17:50;;;;;;;9.40;5.32;;;11.40;99.90;;;;;;5061714;28;20040;-68
2022/05/16 02:20:16;;;;;;;8.38;4.47;;;11.40;99.90;;;;;;5056717;28;20123;-68
2022/05/16 02:25:27;;;;;;;11.27;4.22;;;11.40;99.90;;;;;;5046593;28;20529;-68
2022/05/16 02:27:54;;;;;;;6.10;4.45;;;11.40;99.90;;;;;;5031107;28;20052;-68
2022/05/16 02:30:21;;;;;;;7.10;4.53;;;11.30;99.90;;;;;;5043819;28;20032;-68
2022/05/16 02:32:48;;;;;;;9.85;4.15;;;11.30;99.90;;;;;;5023072;28;20037;-68
2022/05/16 02:35:15;;;;;;;9.18;4.53;;;11.30;99.90;;;;;;5064866;28;20143;-68
2022/05/16 02:37:41;;;;;;;9.05;4.55;;;11.20;99.90;;;;;;5035060;28;20041;-68
2022/05/16 02:40:08;;;;;;;7.38;4.18;;;11.20;99.90;;;;;;5032364;28;20120;-68
2022/05/16 02:42:35;;;;;;;9.40;4.38;;;11.20;99.90;;;;;;5033353;28;20045;-68
2022/05/16 02:45:01;;;;;;;11.40;4.28;;;11.20;99.90;;;;;;5024940;28;20049;-69
2022/05/16 02:47:27;;;;;;;5.97;4.20;;;11.10;99.90;;;;;;5003942;28;20076;-69
2022/05/16 02:49:54;;;;;;;8.38;4.43;;;11.10;99.90;;;;;;5031766;28;20033;-69
2022/05/16 02:52:19;;;;;;;9.43;4.13;;;11.10;99.90;;;;;;5015322;28;20056;-69
2022/05/16 02:54:48;;;;;;;8.50;4.50;;;11.10;99.90;;;;;;5046837;28;20533;-69
2022/05/16 02:57:14;;;;;;;11.60;4.82;;;11.00;99.90;;;;;;5048571;28;20044;-69
2022/05/16 02:59:40;;;;;;;9.32;4.47;;;11.00;99.90;;;;;;5029804;28;20033;-69
2022/05/16 03:02:08;;;;;;;9.00;4.60;;;11.00;99.90;;;;;;5040320;28;20041;-69
2022/05/16 03:04:35;;;;;;;9.23;4.50;;;10.90;99.90;;;;;;5038843;28;20110;-69
2022/05/16 03:07:01;;;;;;;12.68;4.30;;;10.90;99.90;;;;;;5040800;28;20037;-68
2022/05/16 03:09:28;;;;;;;10.18;4.35;;;10.90;99.90;;;;;;5037179;28;20036;-69
2022/05/16 03:11:54;;;;;;;7.07;4.13;;;10.80;99.90;;;;;;5056223;28;20098;-69
2022/05/16 03:14:21;;;;;;;8.48;4.40;;;10.80;99.90;;;;;;5055747;28;20037;-69
2022/05/16 03:16:47;;;;;;;8.55;4.38;;;10.80;99.90;;;;;;5050754;28;20402;-69
2022/05/16 03:19:13;;;;;;;8.45;4.65;;;10.70;99.90;;;;;;5053290;28;20518;-69
2022/05/16 03:21:40;;;;;;;10.32;4.13;;;10.70;99.90;;;;;;5040548;28;20103;-69
2022/05/16 03:24:08;;;;;;;7.57;4.25;;;10.70;99.90;;;;;;5056040;28;20155;-69
2022/05/16 03:26:34;;;;;;;9.50;4.40;;;10.70;99.90;;;;;;5056504;28;20053;-69
2022/05/16 03:29:02;;;;;;;7.35;3.80;;;10.70;99.90;;;;;;5043032;28;20048;-68
2022/05/16 03:31:27;;;;;;;7.45;3.97;;;10.70;99.90;;;;;;5068389;28;20676;-69
2022/05/16 03:33:53;;;;;;;8.13;3.92;;;10.70;99.90;;;;;;5075469;28;20043;-69
2022/05/16 03:36:19;;;;;;;8.90;3.83;;;10.70;99.90;;;;;;5048701;28;20037;-69
2022/05/16 03:41:29;;;;;;;7.20;4.25;;;10.70;99.90;;;;;;5048186;28;20126;-69
2022/05/16 03:43:55;;;;;;;8.85;4.00;;;10.60;99.90;;;;;;5055427;28;20490;-69
2022/05/16 03:46:21;;;;;;;10.30;4.53;;;10.60;99.90;;;;;;5033353;28;20041;-69
2022/05/16 03:48:47;;;;;;;9.18;4.55;;;10.60;99.90;;;;;;5057638;28;20044;-69
2022/05/16 03:51:14;;;;;;;9.93;4.40;;;10.60;99.90;;;;;;5052128;28;20045;-69
2022/05/16 03:53:46;;;;;;;9.02;4.03;;;10.60;99.90;;;;;;5024337;28;20033;-68
2022/05/16 03:56:18;;;;;;;12.30;4.40;;;10.60;99.90;;;;;;5034399;28;20040;-69
2022/05/16 03:58:44;;;;;;;10.63;4.22;;;10.60;99.90;;;;;;5039758;28;20328;-69
2022/05/16 04:01:11;;;;;;;8.55;4.80;;;10.60;99.90;;;;;;5057076;28;20032;-69
2022/05/16 04:03:38;;;;;;;11.30;4.18;;;10.50;99.90;;;;;;5069759;28;20033;-69
2022/05/16 04:06:04;;;;;;;6.10;3.95;;;10.50;99.90;;;;;;5056475;28;20041;-69
2022/05/16 04:08:31;;;;;;;7.60;3.45;;;10.50;99.90;;;;;;5019632;28;20033;-69
2022/05/16 04:10:58;;;;;;;7.45;4.32;;;10.50;99.90;;;;;;5056897;28;20067;-69
2022/05/16 04:13:24;;;;;;;9.27;4.10;;;10.50;99.90;;;;;;5039773;28;20076;-69
2022/05/16 04:15:50;;;;;;;8.43;3.78;;;10.50;99.90;;;;;;5059493;28;20137;-69
2022/05/16 04:18:16;;;;;;;6.82;3.58;;;10.50;99.90;;;;;;5055651;28;20489;-69
2022/05/16 04:20:42;;;;;;;5.68;4.00;;;10.50;99.90;;;;;;5059679;28;20033;-69
2022/05/16 04:23:08;;;;;;;10.20;4.13;;;10.50;99.90;;;;;;5061809;28;20028;-69
2022/05/16 04:25:34;;;;;;;10.27;4.28;;;10.50;99.90;;;;;;5059092;28;20161;-69
2022/05/16 04:28:00;;;;;;;7.30;4.20;;;10.60;99.90;;;;;;5039056;28;20078;-69
2022/05/16 04:30:26;;;;;;;8.07;3.95;;;10.60;99.90;;;;;;5042535;28;20764;-69
2022/05/16 04:32:52;;;;;;;11.82;4.50;;;10.60;99.90;;;;;;5055018;28;20064;-69
2022/05/16 04:35:18;;;;;;;5.85;4.00;;;10.70;99.90;;;;;;5043130;28;20033;-69
2022/05/16 04:37:44;;;;;;;8.73;3.95;;;10.70;99.90;;;;;;5037665;28;20239;-69
2022/05/16 04:40:11;;;;;;;8.05;3.90;;;10.70;99.90;;;;;;5038568;28;20040;-69
2022/05/16 04:42:46;;;;;;;6.63;4.10;;;10.80;99.90;;;;;;5039134;28;20040;-69
2022/05/16 04:45:22;;;;;;;9.30;3.75;;;10.80;99.90;;;;;;5061219;28;20485;-69
2022/05/16 04:47:53;;;;;;;9.30;3.88;;;10.90;99.90;;;;;;5052490;28;20044;-69
2022/05/16 04:50:31;;;;;;;7.88;3.58;;;10.90;99.90;;;;;;5061248;28;20342;-69
2022/05/16 04:52:57;;;;;;;9.85;3.92;;;10.90;99.90;;;;;;5060302;28;20125;-69
2022/05/16 04:55:23;;;;;;;9.82;4.00;;;11.00;99.90;;;;;;5057747;28;20793;-69
2022/05/16 04:57:50;;;;;;;7.25;4.13;;;11.00;99.90;;;;;;5059597;28;20453;-69
2022/05/16 05:00:18;;;;;;;9.93;4.18;;;11.00;99.90;;;;;;5059318;28;20477;-69
2022/05/16 05:02:44;;;;;;;8.60;4.10;;;11.10;99.90;;;;;;5061628;28;20044;-69
2022/05/16 05:05:11;;;;;;;6.80;3.60;;;11.10;99.90;;;;;;5046587;28;20045;-69
2022/05/16 05:07:37;;;;;;;6.80;3.65;;;11.20;99.90;;;;;;5034874;28;20037;-69
2022/05/16 05:15:36;;;;;;;6.93;3.72;;;11.30;99.90;;;;;;5031429;28;20063;-69
2022/05/16 05:18:03;;;;;;;8.70;4.38;;;11.30;99.90;;;;;;5039036;28;20576;-69
2022/05/16 05:20:29;;;;;;;9.43;4.30;;;11.40;99.90;;;;;;5041273;28;20111;-69
2022/05/16 05:22:55;;;;;;;9.55;4.07;;;11.40;99.90;;;;;;5045195;28;20495;-69
2022/05/16 05:25:22;;;;;;;9.93;4.53;;;11.50;99.90;;;;;;5025554;28;20037;-69
2022/05/16 05:27:49;;;;;;;7.72;4.38;;;11.60;99.90;;;;;;5051193;28;20466;-69
2022/05/16 05:30:19;;;;;;;8.63;4.13;;;11.60;99.90;;;;;;5054595;28;20416;-69
2022/05/16 05:32:46;;;;;;;12.32;4.80;;;11.70;99.90;;;;;;5059279;28;20063;-68
2022/05/16 05:35:12;;;;;;;8.50;4.63;;;11.70;99.90;;;;;;5036662;28;20756;-69
2022/05/16 05:37:38;;;;;;;6.35;4.03;;;11.80;99.90;;;;;;5046760;28;20123;-69
2022/05/16 05:40:06;;;;;;;13.20;4.88;;;11.80;99.90;;;;;;5055132;28;20119;-69
2022/05/16 05:42:33;;;;;;;7.20;4.53;;;11.90;99.90;;;;;;5055934;28;20037;-69
2022/05/16 05:45:02;;;;;;;8.68;4.25;;;12.00;99.90;;;;;;5055454;28;20051;-69
2022/05/16 05:47:28;;;;;;;10.85;4.70;;;12.10;99.90;;;;;;5036067;28;20041;-69
2022/05/16 05:49:54;;;;;;;13.80;4.90;;;12.20;99.90;;;;;;5038513;28;20037;-69
2022/05/16 05:52:21;;;;;;;11.25;4.40;;;12.30;99.90;;;;;;5037769;28;20456;-69
2022/05/16 05:54:47;;;;;;;10.52;4.38;;;12.40;99.90;;;;;;5066656;28;20039;-69
2022/05/16 05:57:15;;;;;;;11.73;4.25;;;12.50;99.90;;;;;;5054865;28;20040;-69
2022/05/16 05:59:41;;;;;;;9.10;4.72;;;12.50;99.90;;;;;;5057953;28;20512;-69
2022/05/16 06:02:08;;;;;;;11.10;4.15;;;12.70;99.90;;;;;;5052382;28;20045;-69
2022/05/16 06:04:34;;;;;;;9.57;4.13;;;12.70;99.90;;;;;;5049467;28;20095;-69
2022/05/16 06:07:00;;;;;;;12.05;4.03;;;12.90;99.90;;;;;;5047984;28;20495;-69
2022/05/16 06:09:27;;;;;;;10.13;4.93;;;13.00;99.90;;;;;;5050811;28;20039;-71
2022/05/16 06:11:53;;;;;;;8.60;3.97;;;13.20;99.90;;;;;;5018357;28;20094;-71
2022/05/16 06:14:19;;;;;;;7.82;3.88;;;13.40;99.90;;;;;;5040305;28;20063;-71
2022/05/16 06:16:44;;;;;;;8.35;3.83;;;13.60;99.90;;;;;;5036346;28;20069;-71
2022/05/16 06:19:10;;;;;;;9.85;3.95;;;13.80;99.90;;;;;;5046887;28;20071;-71
2022/05/16 06:21:37;;;;;;;9.90;4.28;;;13.90;99.90;;;;;;5012515;28;20052;-71
2022/05/16 06:24:04;;;;;;;12.48;4.28;;;13.90;99.90;;;;;;5047960;28;20048;-71
2022/05/16 06:26:30;;;;;;;9.65;3.60;;;14.10;99.90;;;;;;5039255;28;20103;-72
2022/05/16 06:28:57;;;;;;;5.28;3.50;;;14.30;99.90;;;;;;5038041;28;20053;-71
2022/05/16 06:31:23;;;;;;;8.73;3.63;;;14.40;99.90;;;;;;5035734;28;20440;-71
2022/05/16 06:33:49;;;;;;;9.43;3.63;;;14.50;99.90;;;;;;5038209;28;20041;-72
2022/05/16 06:36:16;;;;;;;13.32;4.32;;;14.70;99.90;;;;;;5055435;28;20028;-71
2022/05/16 06:38:42;;;;;;;17.38;4.15;;;14.80;99.90;;;;;;5054373;28;20543;-71
2022/05/16 06:41:08;;;;;;;10.10;4.22;;;15.00;99.90;;;;;;5043961;28;20115;-71
2022/05/16 06:43:35;;;;;;;7.63;3.30;;;15.10;99.90;;;;;;5057911;28;20142;-71
2022/05/16 06:46:04;;;;;;;10.38;3.35;;;15.30;99.90;;;;;;5054128;28;20098;-71
2022/05/16 06:48:30;;;;;;;9.13;3.53;;;15.40;99.90;;;;;;5024961;28;20099;-71
2022/05/16 06:50:56;;;;;;;6.72;3.13;;;15.60;99.90;;;;;;5048930;28;20447;-71
2022/05/16 06:53:29;;;;;;;6.80;3.40;;;15.70;99.90;;;;;;5049914;28;20041;-71
2022/05/16 06:56:00;;;;;;;6.85;3.33;;;15.90;99.90;;;;;;5035445;28;20492;-72
2022/05/16 06:58:26;;;;;;;7.05;3.70;;;16.00;99.90;;;;;;5049489;28;20460;-71
2022/05/16 07:00:52;;;;;;;7.25;3.60;;;16.20;99.90;;;;;;5033151;28;20086;-71
2022/05/16 07:03:18;;;;;;;7.93;3.70;;;16.40;99.90;;;;;;5032734;28;20041;-71
2022/05/16 07:05:46;;;;;;;9.15;3.55;;;16.60;99.90;;;;;;5018441;28;20130;-71
2022/05/16 07:08:12;;;;;;;9.68;3.03;;;16.70;99.90;;;;;;5025166;28;20291;-71
2022/05/16 07:10:37;;;;;;;10.90;3.90;;;16.80;99.90;;;;;;5031646;28;20144;-71
2022/05/16 07:13:03;;;;;;;9.32;3.58;;;17.00;99.90;;;;;;5036857;28;20037;-72
2022/05/16 07:15:29;;;;;;;8.80;4.18;;;17.20;99.90;;;;;;5033440;28;20433;-77
2022/05/16 07:17:55;;;;;;;8.20;3.22;;;17.40;99.90;;;;;;5018977;28;20045;-71
2022/05/16 07:20:20;;;;;;;7.95;3.15;;;17.50;99.90;;;;;;5015501;28;20041;-71
2022/05/16 07:22:50;;;;;;;14.88;4.88;;;17.70;99.90;;;;;;5020788;28;20095;-71
2022/05/16 07:25:19;;;;;;;10.77;3.10;;;17.80;99.90;;;;;;5024237;28;20099;-72
2022/05/16 07:27:56;;;;;;;6.45;3.38;;;17.90;99.90;;;;;;5032017;28;20547;-71
2022/05/16 07:30:24;;;;;;;6.45;3.08;;;18.10;99.90;;;;;;5033856;28;20037;-72
2022/05/16 07:32:52;;;;;;;6.95;3.47;;;18.20;99.60;;;;;;5018673;28;20036;-73
2022/05/16 07:35:22;;;;;;;8.63;3.35;;;18.30;99.20;;;;;;5017206;28;20037;-72
2022/05/16 07:37:48;;;;;;;8.27;3.28;;;18.40;99.10;;;;;;5042651;28;20048;-72
2022/05/16 07:40:16;;;;;;;6.78;3.58;;;18.50;99.10;;;;;;5029149;28;20041;-72
2022/05/16 07:42:42;;;;;;;10.65;3.60;;;18.70;99.00;;;;;;5031378;28;20038;-72
2022/05/16 07:45:08;;;;;;;10.75;3.95;;;18.80;98.50;;;;;;5029415;28;20045;-72
2022/05/16 07:47:34;;;;;;;11.20;3.60;;;18.90;98.20;;;;;;5045375;28;20045;-70
2022/05/16 07:50:01;;;;;;;9.52;3.20;;;19.10;97.90;;;;;;5042798;28;20411;-70
2022/05/16 07:52:28;;;;;;;8.15;3.63;;;19.20;97.90;;;;;;5029102;28;20142;-70
2022/05/16 07:54:55;;;;;;;11.93;4.47;;;19.40;97.20;;;;;;5010464;28;20073;-70
2022/05/16 07:57:22;;;;;;;9.82;3.13;;;19.60;97.30;;;;;;4997698;28;20045;-70
2022/05/16 07:59:48;;;;;;;8.38;3.38;;;19.60;97.10;;;;;;5007965;28;20490;-70
2022/05/16 08:02:14;;;;;;;6.35;3.47;;;19.80;96.60;;;;;;5022293;28;20041;-70
2022/05/16 08:04:40;;;;;;;5.68;3.17;;;19.90;96.60;;;;;;5039934;28;20048;-70
2022/05/16 08:07:07;;;;;;;10.65;3.67;;;19.90;96.30;;;;;;5040460;28;20056;-70
2022/05/16 08:12:25;;;;;;;8.95;3.95;;;20.10;96.20;;;;;;5036277;28;20549;-70
2022/05/16 08:14:51;;;;;;;13.90;3.92;;;20.20;96.20;;;;;;5026362;28;20040;-70
2022/05/16 08:17:17;;;;;;;9.43;3.50;;;20.30;95.80;;;;;;5013237;28;20049;-70
2022/05/16 08:19:42;;;;;;;7.72;3.22;;;20.50;95.80;;;;;;5028969;28;20033;-70
2022/05/16 08:22:08;;;;;;;17.10;3.78;;;20.60;95.50;;;;;;5027783;28;20415;-70
2022/05/16 08:24:34;;;;;;;16.02;3.97;;;20.70;95.20;;;;;;5012545;28;20041;-74
2022/05/16 08:27:02;;;;;;;8.20;3.15;;;21.00;95.10;;;;;;5013406;28;20061;-74
2022/05/16 08:29:29;;;;;;;8.63;3.63;;;21.10;94.60;;;;;;5048656;28;20041;-75
2022/05/16 08:31:57;;;;;;;11.20;3.20;;;21.20;94.70;;;;;;5035274;28;20125;-74
2022/05/16 08:34:24;;;;;;;10.50;4.07;;;21.40;93.70;;;;;;5048270;28;20383;-74
2022/05/16 08:39:52;;;;;;;15.35;4.63;;;21.70;93.40;;;;;;5014198;28;20384;-74
2022/05/16 08:42:27;;;;;;;7.32;3.25;;;21.80;93.50;;;;;;5048664;28;20042;-74
2022/05/16 08:44:59;;;;;;;14.60;4.10;;;21.90;93.20;;;;;;5017374;28;20045;-74
2022/05/16 08:47:44;;;;;;;;;;;22.10;92.90;;;;;;5043153;28;20356;-75
2022/05/16 08:50:19;;;;;;;12.18;3.72;;;22.20;92.30;;;;;;5044777;28;19942;-75
2022/05/16 08:52:52;;;;;;;10.82;3.58;;;22.20;92.20;;;;;;5025026;28;20033;-75
2022/05/16 08:55:40;;;;;;;9.25;3.45;;;22.40;92.60;;;;;;5025371;28;20041;-75
2022/05/16 08:58:26;;;;;;;10.75;3.30;;;22.70;91.20;;;;;;5022530;28;20483;-75
2022/05/16 09:01:02;;;;;;;11.95;3.28;;;22.80;90.80;;;;;;5051906;28;20037;-75
2022/05/16 09:03:35;;;;;;;15.88;3.55;;;22.90;90.60;;;;;;5051839;28;20036;-74
2022/05/16 09:06:12;;;;;;;10.73;3.60;;;23.00;90.50;;;;;;5026551;28;20443;-75
2022/05/16 09:08:50;;;;;;;12.57;3.63;;;22.90;90.10;;;;;;5045452;28;20036;-76
2022/05/16 09:11:35;;;;;;;13.75;3.70;;;22.90;89.90;;;;;;5032356;28;20065;-76
2022/05/16 09:14:06;;;;;;;7.85;3.20;;;22.90;90.00;;;;;;5046115;28;20507;-76
2022/05/16 09:16:44;;;;;;;18.67;4.67;;;23.00;90.40;;;;;;5043734;28;20175;-75
2022/05/16 09:19:22;;;;;;;9.20;3.50;;;23.10;90.00;;;;;;5031906;28;20081;-76
2022/05/16 09:21:47;;;;;;;7.82;3.38;;;23.20;89.60;;;;;;5044060;28;20049;-75
2022/05/16 09:24:19;;;;;;;7.80;3.05;;;23.30;89.50;;;;;;5033288;28;20049;-75
2022/05/16 09:26:55;;;;;;;8.38;3.42;;;23.40;89.80;;;;;;5044885;28;20557;-76
2022/05/16 09:29:32;;;;;;;7.00;3.08;;;23.30;88.40;;;;;;5018577;28;20043;-76
2022/05/16 09:32:36;;;;;;;11.82;3.67;;;23.30;88.10;;;;;;5045794;28;20041;-76
2022/05/16 09:35:04;;;;;;;12.60;3.17;;;23.20;87.10;;;;;;4994150;28;20100;-76
2022/05/16 09:37:30;;;;;;;9.75;3.80;;;23.20;88.60;;;;;;5014847;28;20045;-76
2022/05/16 09:39:56;;;;;;;10.35;3.30;;;23.20;89.40;;;;;;5034829;28;20538;-76
2022/05/16 09:42:26;;;;;;;11.70;3.35;;;23.20;88.70;;;;;;5051319;28;20387;-76
2022/05/16 09:44:57;;;;;;;9.52;3.25;;;23.20;88.90;;;;;;5051687;28;20045;-70
2022/05/16 09:47:29;;;;;;;10.80;3.58;;;23.20;88.10;;;;;;5037010;28;20042;-70
2022/05/16 09:50:17;;;;;;;14.30;3.93;;;23.20;88.40;;;;;;5035132;28;20038;-70
2022/05/16 09:52:49;;;;;;;16.08;4.20;;;23.20;89.00;;;;;;5047709;28;20387;-70
2022/05/16 09:55:51;;;;;;;8.75;3.30;;;23.30;88.50;;;;;;5041856;28;20040;-70
2022/05/16 09:58:24;;;;;;;9.13;3.25;;;23.40;88.60;;;;;;5052444;28;20036;-70
2022/05/16 10:01:02;;;;;;;8.55;3.25;;;23.50;88.70;;;;;;5031637;28;20038;-70
2022/05/16 10:04:03;;;;;;;11.10;3.10;;;23.50;87.00;;;;;;5043732;28;20103;-70
2022/05/16 10:06:37;;;;;;;11.18;3.47;;;23.60;87.60;;;;;;5031453;28;20045;-70
2022/05/16 10:09:09;;;;;;;12.65;3.60;;;23.70;87.30;;;;;;5038466;28;20045;-70
2022/05/16 10:11:38;;;;;;;11.18;3.50;;;23.70;87.80;;;;;;5044748;28;20040;-70
2022/05/16 10:14:06;;;;;;;11.60;3.28;;;23.70;86.90;;;;;;5037342;28;20038;-70
2022/05/16 10:16:36;;;;;;;16.80;5.07;;;23.80;87.70;;;;;;5041906;28;20041;-70
2022/05/16 10:19:15;;;;;;;11.38;3.45;;;23.90;87.60;;;;;;5050335;28;20102;-70
2022/05/16 10:22:02;;;;;;;13.00;3.92;;;23.90;86.70;;;;;;5033981;28;20045;-70
2022/05/16 10:24:34;;;;;;;17.15;4.35;;;23.90;86.70;;;;;;5047011;28;20129;-70
2022/05/16 10:27:06;;;;;;;12.57;3.55;;;24.20;86.50;;;;;;5045411;28;20088;-70
2022/05/16 10:29:35;;;;;;;7.15;2.97;;;24.40;86.80;;;;;;5050121;28;20041;-70
2022/05/16 10:35:08;;;;;;;15.80;3.83;;;24.80;84.10;;;;;;5039754;28;20087;-70
2022/05/16 10:37:37;;;;;;;11.57;3.33;;;25.20;82.10;;;;;;5048319;28;20048;-70
2022/05/16 10:40:24;;;;;;;10.77;3.50;;;25.30;82.80;;;;;;5051170;28;20092;-70
2022/05/16 10:42:56;;;;;;;12.45;3.53;;;25.40;83.70;;;;;;5035586;28;20056;-70
2022/05/16 10:45:26;;;;;;;10.05;3.03;;;25.50;83.40;;;;;;5033498;28;20033;-70
2022/05/16 10:48:18;;;;;;;11.23;3.70;;;25.60;83.60;;;;;;5018986;28;20036;-70
2022/05/16 10:50:50;;;;;;;10.18;3.20;;;25.60;81.70;;;;;;5049512;28;20041;-70
2022/05/16 10:53:33;;;;;;;10.35;3.10;;;25.60;82.40;;;;;;5049233;28;20041;-70
2022/05/16 10:56:18;;;;;;;13.15;3.65;;;25.70;82.40;;;;;;5049309;28;20037;-70
2022/05/16 10:58:53;;;;;;;16.30;3.95;;;25.70;81.20;;;;;;5038663;28;20088;-70
2022/05/16 11:01:42;;;;;;;10.32;3.60;;;25.80;82.90;;;;;;5050008;28;20102;-70
2022/05/16 11:04:38;;;;;;;10.18;3.70;;;25.70;80.20;;;;;;5049490;28;20040;-70
2022/05/16 11:07:20;;;;;;;8.15;3.40;;;25.70;81.90;;;;;;5039699;28;20049;-70
2022/05/16 11:09:58;;;;;;;8.60;3.50;;;25.60;80.50;;;;;;5033843;28;20040;-70
2022/05/16 11:12:29;;;;;;;17.60;3.60;;;25.50;79.90;;;;;;5049199;28;20712;-70
2022/05/16 11:15:00;;;;;;;10.30;4.25;;;25.40;80.10;;;;;;5037378;28;20087;-70
2022/05/16 11:17:44;;;;;;;13.23;3.72;;;25.30;79.40;;;;;;5047900;28;20124;-70
2022/05/16 11:20:18;;;;;;;16.38;3.47;;;25.20;80.60;;;;;;5048454;28;20044;-70
2022/05/16 11:22:55;;;;;;;11.88;3.55;;;25.10;81.30;;;;;;5029320;28;20049;-70
2022/05/16 11:25:24;;;;;;;9.45;3.53;;;25.10;81.90;;;;;;5031320;28;20049;-70
2022/05/16 11:28:18;;;;;;;8.60;3.70;;;25.00;82.00;;;;;;5039994;28;20053;-70
2022/05/16 11:30:54;;;;;;;9.02;3.35;;;25.00;82.70;;;;;;5033463;28;20040;-70
2022/05/16 11:33:35;;;;;;;11.15;3.55;;;24.90;82.30;;;;;;5037079;28;20410;-70
2022/05/16 11:36:16;;;;;;;9.00;3.35;;;24.90;82.90;;;;;;5046237;28;20044;-70
2022/05/16 11:39:04;;;;;;;8.65;3.40;;;24.80;83.90;;;;;;5038084;28;20424;-76
2022/05/16 11:41:44;;;;;;;10.30;3.63;;;24.70;83.60;;;;;;5042201;28;20044;-78
2022/05/16 11:44:27;;;;;;;8.20;3.58;;;24.70;83.90;;;;;;5055909;28;20064;-77
2022/05/16 11:47:11;;;;;;;11.50;3.78;;;24.70;84.90;;;;;;5057488;28;20036;-78
2022/05/16 11:49:57;;;;;;;15.07;4.25;;;24.60;84.60;;;;;;5040703;28;20045;-79
2022/05/16 11:52:31;;;;;;;9.05;3.15;;;24.50;83.50;;;;;;5032806;28;20126;-78
2022/05/16 12:01:02;;;;;;;11.13;4.05;;;24.20;85.40;;;;;;5054819;28;20402;-77
2022/05/16 12:03:38;;;;;;;8.52;3.60;;;24.10;86.10;;;;;;5049739;28;20049;-78
2022/05/16 12:06:22;;;;;;;8.27;3.58;;;23.90;86.60;;;;;;5036611;28;20045;-77
2022/05/16 12:08:48;;;;;;;6.63;3.70;;;23.90;87.80;;;;;;5055872;28;20401;-77
2022/05/16 12:11:20;;;;;;;10.13;4.28;;;23.80;88.10;;;;;;5053361;28;20733;-77
2022/05/16 12:14:07;;;;;;;5.38;3.40;;;23.70;88.90;;;;;;5053754;28;20041;-77
2022/05/16 12:16:52;;;;;;;7.72;3.90;;;23.70;89.50;;;;;;5037963;28;20045;-77
2022/05/16 12:19:26;;;;;;;7.07;3.85;;;23.70;89.80;;;;;;5034893;28;20052;-77
2022/05/16 12:22:01;;;;;;;9.15;3.80;;;23.60;89.80;;;;;;5054471;28;20452;-77
2022/05/16 12:24:30;;;;;;;10.00;3.67;;;23.50;90.00;;;;;;5047931;28;20487;-76
2022/05/16 12:26:59;;;;;;;11.90;3.63;;;23.50;90.00;;;;;;5058535;28;20071;-76
2022/05/16 12:29:42;;;;;;;14.65;4.50;;;23.50;90.20;;;;;;5040171;28;20635;-73
2022/05/16 12:32:08;;;;;;;10.80;4.22;;;23.50;90.10;;;;;;5052599;28;20104;-73
2022/05/16 12:34:37;;;;;;;7.35;3.60;;;23.50;90.20;;;;;;5050193;28;20450;-73
2022/05/16 12:37:06;;;;;;;8.75;3.75;;;23.60;90.10;;;;;;5039106;28;20048;-73
2022/05/16 12:39:51;;;;;;;8.68;4.15;;;23.70;90.20;;;;;;5035710;28;20083;-74
2022/05/16 12:42:32;;;;;;;7.30;4.35;;;23.80;90.30;;;;;;5063764;28;20047;-73
2022/05/16 12:45:02;;;;;;;7.22;3.60;;;23.90;88.90;;;;;;5043450;28;20044;-73
2022/05/16 12:48:01;;;;;;;9.93;4.18;;;24.00;89.90;;;;;;5032673;28;20128;-72
2022/05/16 12:50:38;;;;;;;8.48;3.78;;;24.10;89.30;;;;;;5054921;28;20391;-73
2022/05/16 12:53:18;;;;;;;9.15;3.67;;;24.20;89.20;;;;;;5044549;28;20386;-72
2022/05/16 12:55:56;;;;;;;8.73;4.03;;;24.30;89.20;;;;;;5047268;28;20060;-73
2022/05/16 12:58:48;;;;;;;6.63;3.38;;;24.40;87.40;;;;;;5030917;28;20131;-72
2022/05/16 13:01:19;;;;;;;6.70;2.85;;;24.40;86.90;;;;;;5045022;28;20120;-72
2022/05/16 13:07:51;;;;;;;7.28;2.95;;;24.50;87.00;;;;;;5027618;28;20039;-72
2022/05/16 13:10:51;;;;;;;6.57;3.33;;;24.40;87.70;;;;;;5048644;28;20044;-72
2022/05/16 13:13:57;;;;;;;8.88;3.88;;;24.40;87.20;;;;;;5041958;28;20037;-72
2022/05/16 13:16:32;;;;;;;10.60;3.42;;;24.30;87.70;;;;;;5029686;28;20048;-72
2022/05/16 13:19:17;;;;;;;5.88;3.30;;;24.20;87.90;;;;;;5034426;28;20036;-72
2022/05/16 13:22:05;;;;;;;5.25;3.13;;;24.10;88.10;;;;;;5049970;28;20101;-72
2022/05/16 13:24:31;;;;;;;7.40;3.25;;;24.10;88.40;;;;;;5039735;28;20029;-72
2022/05/16 13:29:46;;;;;;;6.30;3.47;;;24.00;88.70;;;;;;5042624;28;21938;-73
2022/05/16 13:32:17;;;;;;;11.90;4.25;;;24.00;89.30;;;;;;5032123;28;20033;-72
2022/05/16 13:34:51;;;;;;;8.27;3.22;;;23.90;89.00;;;;;;5040058;28;21095;-74
2022/05/16 13:37:24;;;;;;;5.50;2.92;;;23.90;89.00;;;;;;5046718;28;20608;-73